Time;durP1;ratioP1;P1;durP2;ratioP2;P2;SDS_P1;SDS_P2;PMS_P1;PMS_P2;Temp;Humidity;BMP_temperature;BMP_pressure;BME280_temperature;BME280_humidity;BME280_pressure;Samples;Min_cycle;Max_cycle;Signal;HPM_P1;HPM_P2
2023/08/06 00:00:11;;;;;;;16.63;13.20;;;;;;;17.34;75.98;99969.38;682247;29;1064;-77
2023/08/06 00:00:32;;;;;;;17.40;13.20;;;;;;;17.38;75.71;99976.31;687752;28;1168;-80
2023/08/06 00:00:53;;;;;;;17.73;13.32;;;;;;;17.36;75.67;99972.84;686024;28;1984;-77
2023/08/06 00:01:13;;;;;;;15.88;12.20;;;;;;;17.32;75.78;99969.38;685060;28;1072;-77
2023/08/06 00:01:34;;;;;;;17.10;11.93;;;;;;;17.32;75.75;99971.16;687299;28;1107;-77
2023/08/06 00:01:54;;;;;;;15.68;11.63;;;;;;;17.39;75.93;99978.06;690168;28;1948;-77
2023/08/06 00:02:15;;;;;;;16.47;12.30;;;;;;;17.37;75.61;99969.31;689999;28;1049;-77
2023/08/06 00:02:36;;;;;;;14.00;11.83;;;;;;;17.39;75.65;99973.69;684973;28;1189;-77
2023/08/06 00:02:56;;;;;;;14.27;11.60;;;;;;;17.38;75.69;99966.66;690182;28;1554;-77
2023/08/06 00:03:17;;;;;;;14.37;10.90;;;;;;;17.39;75.56;99968.41;687750;28;1094;-77
2023/08/06 00:03:37;;;;;;;15.98;10.90;;;;;;;17.40;75.36;99977.19;687246;28;1979;-77
2023/08/06 00:03:59;;;;;;;17.02;11.27;;;;;;;17.35;75.47;99968.47;690020;28;1074;-77
2023/08/06 00:04:20;;;;;;;16.05;11.68;;;;;;;17.37;75.61;99974.59;686137;28;1092;-77
2023/08/06 00:04:41;;;;;;;16.73;11.85;;;;;;;17.41;75.59;99973.66;685220;28;1257;-77
2023/08/06 00:05:10;;;;;;;16.67;11.60;;;;;;;17.39;75.56;99972.78;684951;28;1062;-77
2023/08/06 00:05:31;;;;;;;19.83;11.98;;;;;;;17.45;75.50;99983.25;685131;28;1260;-77
2023/08/06 00:05:51;;;;;;;19.30;12.50;;;;;;;17.45;75.39;99978.00;684533;28;1181;-77
2023/08/06 00:06:21;;;;;;;19.85;12.90;;;;;;;17.39;75.38;99978.94;682342;28;1433;-77
2023/08/06 00:06:42;;;;;;;18.27;12.50;;;;;;;17.27;75.84;99971.19;684890;28;992;-77
2023/08/06 00:07:02;;;;;;;18.02;12.05;;;;;;;17.23;76.07;99967.72;682422;29;1247;-77
2023/08/06 00:07:23;;;;;;;16.83;12.05;;;;;;;17.23;76.02;99970.34;679022;29;1309;-77
2023/08/06 00:07:45;;;;;;;14.90;11.80;;;;;;;17.20;76.37;99975.66;684396;28;1170;-77
2023/08/06 00:08:05;;;;;;;14.73;12.30;;;;;;;17.25;76.25;99967.72;687612;28;1950;-77
2023/08/06 00:08:26;;;;;;;15.20;12.60;;;;;;;17.23;75.99;99972.13;688445;28;1781;-77
2023/08/06 00:08:46;;;;;;;15.30;12.47;;;;;;;17.25;76.11;99970.34;687183;28;1444;-77
2023/08/06 00:09:07;;;;;;;15.50;12.18;;;;;;;17.33;75.98;99971.13;690393;28;961;-77
2023/08/06 00:09:28;;;;;;;15.50;12.05;;;;;;;17.24;76.01;99969.50;685262;28;1702;-78
2023/08/06 00:09:48;;;;;;;17.20;12.43;;;;;;;17.19;76.14;99968.63;688657;28;1191;-77
2023/08/06 00:10:09;;;;;;;18.05;11.88;;;;;;;17.29;76.18;99976.44;688471;28;1073;-77
2023/08/06 00:10:30;;;;;;;17.85;11.77;;;;;;;17.23;76.11;99973.00;687320;28;1679;-77
2023/08/06 00:10:50;;;;;;;15.83;11.47;;;;;;;17.23;76.30;99975.63;684433;28;1264;-77
2023/08/06 00:11:12;;;;;;;15.95;12.27;;;;;;;17.24;76.25;99972.13;686262;28;1388;-77
2023/08/06 00:11:33;;;;;;;15.95;12.07;;;;;;;17.26;76.26;99978.25;687287;28;1059;-77
2023/08/06 00:11:53;;;;;;;15.27;11.82;;;;;;;17.20;76.25;99973.00;687732;28;849;-77
2023/08/06 00:12:14;;;;;;;14.80;11.37;;;;;;;17.23;76.31;99973.00;686762;28;1027;-77
2023/08/06 00:12:35;;;;;;;15.85;11.60;;;;;;;17.24;76.45;99979.16;683446;28;1389;-77
2023/08/06 00:12:55;;;;;;;16.75;11.40;;;;;;;17.23;76.19;99975.63;684868;28;1406;-77
2023/08/06 00:13:18;;;;;;;15.30;11.03;;;;;;;17.20;76.39;99966.88;688414;28;1394;-76
2023/08/06 00:13:38;;;;;;;15.48;11.57;;;;;;;17.20;76.44;99967.72;687155;28;1130;-77
2023/08/06 00:13:59;;;;;;;16.03;12.70;;;;;;;17.18;76.43;99964.25;686927;28;1148;-77
2023/08/06 00:14:20;;;;;;;17.20;13.63;;;;;;;17.28;76.47;99964.16;682102;28;1131;-77
2023/08/06 00:14:40;;;;;;;17.60;13.30;;;;;;;17.38;75.90;99979.84;684929;28;1394;-78
2023/08/06 00:15:01;;;;;;;17.30;12.90;;;;;;;17.45;75.87;99972.72;686254;28;1520;-77
2023/08/06 00:15:22;;;;;;;16.27;12.05;;;;;;;17.57;75.55;99970.81;686454;28;1165;-76
2023/08/06 00:15:42;;;;;;;15.55;11.73;;;;;;;17.53;75.23;99964.72;689654;28;933;-77
2023/08/06 00:16:13;;;;;;;17.52;11.77;;;;;;;17.60;75.00;99962.84;690198;28;1396;-77
2023/08/06 00:16:33;;;;;;;19.00;12.45;;;;;;;17.61;74.80;99961.97;686130;28;1816;-77
2023/08/06 00:16:54;;;;;;;18.05;12.80;;;;;;;17.58;74.84;99954.09;690050;28;947;-76
2023/08/06 00:17:15;;;;;;;17.03;12.80;;;;;;;17.61;74.81;99959.31;690082;28;2326;-77
2023/08/06 00:17:35;;;;;;;17.67;12.93;;;;;;;17.65;74.80;99963.69;691114;28;1395;-77
2023/08/06 00:17:56;;;;;;;16.95;12.35;;;;;;;17.66;74.73;99966.25;690581;28;712;-77
2023/08/06 00:18:16;;;;;;;17.80;12.50;;;;;;;17.50;74.68;99957.72;684789;28;1179;-77
2023/08/06 00:18:38;;;;;;;15.30;12.18;;;;;;;17.44;75.13;99959.56;684699;28;1163;-77
2023/08/06 00:18:58;;;;;;;16.30;12.00;;;;;;;17.36;75.62;99955.28;682453;29;886;-77
2023/08/06 00:19:19;;;;;;;16.20;11.60;;;;;;;17.37;75.56;99958.75;684645;28;1160;-77
2023/08/06 00:19:39;;;;;;;15.60;11.30;;;;;;;17.42;75.69;99961.34;687550;28;973;-77
2023/08/06 00:20:05;;;;;;;14.30;11.13;;;;;;;17.32;75.78;99957.97;685619;28;1049;-77
2023/08/06 00:20:26;;;;;;;13.60;11.20;;;;;;;17.36;75.71;99955.28;682169;28;1346;-77
2023/08/06 00:20:47;;;;;;;14.18;11.50;;;;;;;17.31;75.75;99961.47;682313;29;1071;-77
2023/08/06 00:21:08;;;;;;;15.95;11.57;;;;;;;17.25;75.95;99955.41;680427;29;977;-77
2023/08/06 00:21:28;;;;;;;16.43;11.70;;;;;;;17.24;76.27;99961.56;689965;28;1095;-77
2023/08/06 00:21:49;;;;;;;16.45;11.45;;;;;;;17.21;75.99;99958.06;688837;28;1154;-77
2023/08/06 00:22:09;;;;;;;13.90;11.13;;;;;;;17.24;76.35;99963.31;684962;28;1295;-77
2023/08/06 00:22:32;;;;;;;14.80;11.20;;;;;;;17.16;76.60;99954.63;683774;28;1433;-77
2023/08/06 00:22:52;;;;;;;14.25;10.80;;;;;;;17.15;76.68;99952.88;685207;28;1268;-77
2023/08/06 00:23:13;;;;;;;15.27;11.23;;;;;;;17.18;76.63;99953.72;682645;28;1454;-77
2023/08/06 00:23:34;;;;;;;14.55;11.52;;;;;;;17.23;76.48;99951.03;684017;28;1919;-77
2023/08/06 00:23:54;;;;;;;13.88;11.30;;;;;;;17.33;76.32;99954.44;687630;28;1635;-76
2023/08/06 00:24:15;;;;;;;13.17;10.93;;;;;;;17.34;75.81;99951.75;689927;28;2039;-77
2023/08/06 00:24:36;;;;;;;13.65;10.45;;;;;;;17.39;75.95;99962.25;690300;28;1987;-77
2023/08/06 00:24:57;;;;;;;13.80;10.50;;;;;;;17.39;75.82;99963.13;688652;28;1050;-76
2023/08/06 00:25:18;;;;;;;13.65;10.20;;;;;;;17.37;75.93;99948.22;684534;28;1087;-77
2023/08/06 00:25:38;;;;;;;14.05;10.70;;;;;;;17.39;75.70;99951.69;690570;28;1058;-77
2023/08/06 00:25:59;;;;;;;15.43;11.20;;;;;;;17.41;75.54;99955.22;691055;28;1236;-76
2023/08/06 00:26:20;;;;;;;15.93;11.45;;;;;;;17.41;75.64;99949.94;688532;28;1127;-77
2023/08/06 00:26:40;;;;;;;15.35;11.38;;;;;;;17.39;75.48;99947.31;682591;29;1102;-77
2023/08/06 00:27:02;;;;;;;13.65;11.13;;;;;;;17.47;75.49;99959.53;680675;29;1398;-77
2023/08/06 00:27:22;;;;;;;13.80;11.07;;;;;;;17.46;75.69;99956.00;682898;28;1554;-77
2023/08/06 00:27:43;;;;;;;12.47;10.33;;;;;;;17.34;75.89;99954.41;682734;28;1588;-76
2023/08/06 00:28:03;;;;;;;12.57;10.00;;;;;;;17.38;75.86;99955.22;684228;28;1034;-77
2023/08/06 00:28:24;;;;;;;12.07;10.05;;;;;;;17.38;75.79;99961.38;690239;28;1078;-76
2023/08/06 00:28:45;;;;;;;12.90;10.43;;;;;;;17.37;75.71;99958.75;690972;28;1526;-77
2023/08/06 00:29:05;;;;;;;15.10;10.98;;;;;;;17.36;76.01;99957.03;689181;28;1266;-77
2023/08/06 00:29:26;;;;;;;16.97;10.97;;;;;;;17.35;76.06;99950.00;682716;28;1307;-77
2023/08/06 00:29:47;;;;;;;15.73;10.88;;;;;;;17.39;75.83;99954.34;688202;28;1396;-76
2023/08/06 00:30:07;;;;;;;14.60;11.00;;;;;;;17.40;75.94;99953.47;688158;28;1412;-74
2023/08/06 00:30:28;;;;;;;13.30;10.60;;;;;;;17.39;75.87;99959.59;684867;28;1337;-77
2023/08/06 00:30:55;;;;;;;13.80;10.03;;;;;;;17.41;75.57;99949.94;679972;29;1162;-77
2023/08/06 00:31:16;;;;;;;14.02;10.10;;;;;;;17.43;75.63;99948.13;683350;28;1453;-77
2023/08/06 00:31:37;;;;;;;15.07;10.75;;;;;;;17.44;75.70;99947.25;685193;28;1180;-77
2023/08/06 00:31:57;;;;;;;14.90;11.13;;;;;;;17.43;75.55;99937.59;685722;28;768;-77
2023/08/06 00:32:20;;;;;;;14.55;10.55;;;;;;;17.46;75.34;99952.50;685159;28;1362;-77
2023/08/06 00:32:40;;;;;;;13.43;10.23;;;;;;;17.47;75.55;99960.41;685338;28;1153;-77
2023/08/06 00:33:01;;;;;;;12.43;9.90;;;;;;;17.46;75.57;99953.38;680406;29;1086;-76
2023/08/06 00:33:22;;;;;;;12.50;10.40;;;;;;;17.50;75.42;99954.19;685142;28;1290;-77
2023/08/06 00:33:43;;;;;;;11.88;10.50;;;;;;;17.48;75.48;99946.31;690071;28;1290;-77
2023/08/06 00:34:04;;;;;;;13.30;10.77;;;;;;;17.44;75.49;99954.31;693783;28;1051;-77
2023/08/06 00:34:24;;;;;;;14.67;10.67;;;;;;;17.33;75.67;99943.88;687767;28;2107;-77
2023/08/06 00:34:45;;;;;;;15.65;10.30;;;;;;;17.29;76.08;99950.09;683336;28;961;-77
2023/08/06 00:35:06;;;;;;;15.07;10.10;;;;;;;17.21;76.25;99945.78;686306;28;1068;-77
2023/08/06 00:35:27;;;;;;;13.07;9.80;;;;;;;17.21;76.28;99950.16;690358;28;1673;-76
2023/08/06 00:35:47;;;;;;;12.43;10.30;;;;;;;17.20;76.50;99951.06;690427;28;879;-77
2023/08/06 00:36:08;;;;;;;12.80;10.50;;;;;;;17.19;76.50;99949.28;696107;28;1685;-76
2023/08/06 00:36:29;;;;;;;16.52;10.88;;;;;;;17.15;76.51;99944.97;691970;28;1435;-77
2023/08/06 00:36:50;;;;;;;16.02;10.30;;;;;;;17.13;76.81;99944.97;688130;28;1133;-76
2023/08/06 00:37:11;;;;;;;15.45;9.80;;;;;;;17.14;76.70;99952.00;686863;28;1371;-77
2023/08/06 00:37:31;;;;;;;12.82;9.80;;;;;;;17.15;76.75;99953.72;687888;28;1109;-77
2023/08/06 00:37:53;;;;;;;12.40;10.00;;;;;;;17.10;76.82;99945.88;687134;28;963;-77
2023/08/06 00:38:14;;;;;;;12.77;10.27;;;;;;;17.08;76.83;99941.53;683481;28;1457;-77
2023/08/06 00:38:35;;;;;;;13.80;10.77;;;;;;;17.16;76.81;99955.50;685194;28;1157;-78
2023/08/06 00:38:55;;;;;;;14.23;10.60;;;;;;;17.08;76.94;99942.41;685262;28;1648;-76
2023/08/06 00:39:16;;;;;;;16.67;10.50;;;;;;;17.09;76.86;99943.28;685565;28;1087;-77
2023/08/06 00:39:37;;;;;;;15.30;10.20;;;;;;;17.09;76.95;99959.09;685076;28;1419;-77
2023/08/06 00:39:57;;;;;;;15.57;10.30;;;;;;;17.05;76.81;99946.84;684811;28;1525;-77
2023/08/06 00:40:20;;;;;;;14.38;10.13;;;;;;;17.06;76.99;99951.22;681075;28;1182;-77
2023/08/06 00:40:41;;;;;;;13.45;9.88;;;;;;;17.07;77.10;99951.19;687944;28;1355;-77
2023/08/06 00:41:02;;;;;;;14.50;10.00;;;;;;;17.10;77.10;99952.94;690593;28;1983;-78
2023/08/06 00:41:22;;;;;;;15.02;9.90;;;;;;;17.09;77.28;99954.69;690721;28;1051;-77
2023/08/06 00:41:43;;;;;;;15.50;9.98;;;;;;;17.10;77.01;99958.19;685295;28;1219;-77
2023/08/06 00:42:04;;;;;;;13.60;9.83;;;;;;;17.08;77.00;99946.81;686717;28;1532;-77
2023/08/06 00:42:34;;;;;;;11.98;9.98;;;;;;;17.08;77.00;99950.31;686006;28;1146;-77
2023/08/06 00:43:01;;;;;;;10.20;9.10;;;;;;;17.09;76.94;99946.78;685643;28;855;-77
2023/08/06 00:43:22;;;;;;;11.63;9.23;;;;;;;17.13;77.03;99951.13;685324;28;2010;-77
2023/08/06 00:43:46;;;;;;;12.45;9.40;;;;;;;17.11;77.03;99952.03;685794;28;1013;-77
2023/08/06 00:44:07;;;;;;;13.32;9.40;;;;;;;17.11;77.14;99955.53;690848;28;1657;-77
2023/08/06 00:44:27;;;;;;;12.60;9.73;;;;;;;17.12;77.16;99953.78;688023;28;1105;-77
2023/08/06 00:44:48;;;;;;;12.95;9.52;;;;;;;17.08;76.85;99941.53;688152;28;1365;-77
2023/08/06 00:45:09;;;;;;;12.82;9.70;;;;;;;17.16;76.99;99952.88;685810;28;1039;-77
2023/08/06 00:45:33;;;;;;;12.95;9.43;;;;;;;17.13;77.03;99950.25;685583;28;1030;-77
2023/08/06 00:45:54;;;;;;;13.02;9.95;;;;;;;17.12;77.01;99952.03;685585;28;803;-77
2023/08/06 00:46:14;;;;;;;14.70;10.05;;;;;;;17.11;77.11;99952.03;690695;28;1170;-77
2023/08/06 00:46:35;;;;;;;14.77;9.83;;;;;;;17.10;77.00;99942.38;687912;28;1231;-77
2023/08/06 00:46:56;;;;;;;14.88;10.20;;;;;;;17.15;77.15;99953.72;685545;28;1568;-77
2023/08/06 00:47:17;;;;;;;13.73;10.07;;;;;;;17.15;77.19;99955.50;690761;28;1192;-77
2023/08/06 00:47:40;;;;;;;12.20;9.77;;;;;;;17.18;77.03;99958.97;688982;28;1303;-77
2023/08/06 00:48:03;;;;;;;11.00;9.50;;;;;;;17.11;77.05;99947.63;693851;28;1286;-77
2023/08/06 00:48:24;;;;;;;11.43;9.55;;;;;;;17.14;77.04;99954.63;688629;28;1149;-77
2023/08/06 00:48:45;;;;;;;12.30;10.05;;;;;;;17.12;77.07;99945.88;690686;28;936;-77
2023/08/06 00:49:06;;;;;;;12.57;10.18;;;;;;;17.11;77.06;99947.63;693573;28;1231;-76
2023/08/06 00:49:26;;;;;;;12.38;10.20;;;;;;;17.13;77.12;99945.84;693372;28;1125;-76
2023/08/06 00:49:47;;;;;;;12.90;10.13;;;;;;;17.15;76.96;99944.97;687984;28;1102;-76
2023/08/06 00:50:08;;;;;;;12.70;10.10;;;;;;;17.15;77.02;99948.47;685489;28;1264;-76
2023/08/06 00:50:29;;;;;;;12.95;10.20;;;;;;;17.16;77.28;99944.06;685357;28;1166;-76
2023/08/06 00:50:50;;;;;;;14.03;10.17;;;;;;;17.19;77.09;99951.94;689397;28;1631;-76
2023/08/06 00:51:11;;;;;;;13.38;10.05;;;;;;;17.12;76.97;99937.97;688379;28;1212;-76
2023/08/06 00:51:32;;;;;;;12.30;9.53;;;;;;;17.19;77.14;99944.91;682617;28;1285;-76
2023/08/06 00:51:53;;;;;;;11.05;9.30;;;;;;;17.17;77.14;99941.41;683505;28;1438;-77
2023/08/06 00:52:14;;;;;;;11.95;9.25;;;;;;;17.17;77.01;99941.41;686007;28;1111;-76
2023/08/06 00:52:36;;;;;;;12.65;9.65;;;;;;;17.15;77.00;99940.53;688792;28;1274;-76
2023/08/06 00:52:57;;;;;;;12.73;9.45;;;;;;;17.17;76.87;99937.91;688920;28;1259;-76
2023/08/06 00:53:18;;;;;;;12.35;9.90;;;;;;;17.17;77.05;99941.41;688164;28;1076;-76
2023/08/06 00:53:39;;;;;;;12.00;9.73;;;;;;;17.16;76.93;99937.03;688004;28;1245;-77
2023/08/06 00:54:01;;;;;;;13.40;10.20;;;;;;;17.17;76.69;99936.16;687857;28;2040;-76
2023/08/06 00:54:23;;;;;;;13.10;9.90;;;;;;;17.16;77.11;99944.97;684124;28;1242;-76
2023/08/06 00:54:43;;;;;;;12.13;9.80;;;;;;;17.16;76.85;99936.16;687443;28;957;-76
2023/08/06 00:55:06;;;;;;;11.38;9.32;;;;;;;17.15;76.82;99940.53;683823;28;2007;-76
2023/08/06 00:55:26;;;;;;;11.55;8.90;;;;;;;17.11;77.05;99938.84;687968;28;1130;-76
2023/08/06 00:55:47;;;;;;;13.30;9.10;;;;;;;17.11;77.02;99936.22;688555;28;1143;-76
2023/08/06 00:56:09;;;;;;;16.77;9.32;;;;;;;17.10;77.17;99931.84;689223;28;1940;-76
2023/08/06 00:56:30;;;;;;;16.35;9.52;;;;;;;17.10;77.01;99923.94;689098;28;2713;-76
2023/08/06 00:56:51;;;;;;;15.18;9.98;;;;;;;17.07;77.09;99924.84;689757;28;2290;-76
2023/08/06 00:57:11;;;;;;;13.73;10.33;;;;;;;17.13;76.87;99937.06;682560;28;1552;-76
2023/08/06 00:57:32;;;;;;;13.45;10.32;;;;;;;17.10;77.05;99931.84;679888;29;1427;-77
2023/08/06 00:57:56;;;;;;;13.43;10.40;;;;;;;17.09;77.13;99930.97;680331;29;1104;-76
2023/08/06 00:58:16;;;;;;;13.13;10.55;;;;;;;17.12;77.13;99932.69;680524;29;1001;-76
2023/08/06 00:58:38;;;;;;;12.80;10.63;;;;;;;17.09;77.06;99922.19;690124;28;1305;-77
2023/08/06 00:58:59;;;;;;;11.40;10.20;;;;;;;17.12;77.08;99938.84;688644;28;799;-76
2023/08/06 00:59:20;;;;;;;10.87;9.77;;;;;;;17.02;77.05;99920.53;684985;28;1166;-76
2023/08/06 00:59:40;;;;;;;13.93;10.40;;;;;;;17.06;77.04;99922.22;689412;28;1109;-76
2023/08/06 01:00:04;;;;;;;14.77;11.03;;;;;;;17.09;77.16;99938.00;691130;28;1331;-76
2023/08/06 01:00:25;;;;;;;15.65;11.32;;;;;;;17.03;77.05;99928.38;684409;28;1718;-76
2023/08/06 01:00:46;;;;;;;12.73;10.70;;;;;;;17.07;76.93;99929.22;685569;28;1217;-76
2023/08/06 01:01:07;;;;;;;13.23;10.50;;;;;;;17.06;77.02;99933.66;682947;29;1035;-76
2023/08/06 01:01:28;;;;;;;14.38;10.90;;;;;;;17.03;76.93;99932.81;687278;28;1293;-76
2023/08/06 01:01:50;;;;;;;18.05;11.40;;;;;;;17.02;77.12;99931.91;690802;28;1087;-77
2023/08/06 01:02:10;;;;;;;18.67;10.88;;;;;;;16.99;77.02;99919.66;688604;28;1035;-77
2023/08/06 01:02:31;;;;;;;18.05;10.88;;;;;;;16.99;77.22;99929.34;686918;28;1758;-76
2023/08/06 01:02:53;;;;;;;15.57;10.87;;;;;;;17.00;76.89;99928.44;687952;28;1179;-76
2023/08/06 01:03:14;;;;;;;13.52;10.93;;;;;;;16.98;77.16;99920.53;688183;28;1044;-76
2023/08/06 01:03:34;;;;;;;13.10;11.07;;;;;;;16.96;77.04;99927.59;684685;28;1980;-76
2023/08/06 01:03:56;;;;;;;13.05;10.90;;;;;;;16.98;76.98;99931.09;691008;28;1919;-76
2023/08/06 01:04:16;;;;;;;16.50;11.40;;;;;;;16.94;77.09;99924.13;690860;28;1122;-76
2023/08/06 01:04:37;;;;;;;15.73;11.07;;;;;;;16.96;77.30;99926.75;688046;28;1116;-76
2023/08/06 01:04:58;;;;;;;15.18;10.70;;;;;;;16.96;77.03;99924.13;683018;28;1264;-76
2023/08/06 01:05:21;;;;;;;12.90;10.55;;;;;;;16.95;76.96;99924.97;689341;28;1202;-76
2023/08/06 01:05:42;;;;;;;13.20;10.23;;;;;;;16.95;76.92;99931.13;692903;28;2012;-76
2023/08/06 01:06:03;;;;;;;13.53;10.20;;;;;;;16.94;76.85;99926.75;691027;28;1208;-76
2023/08/06 01:06:49;;;;;;;13.27;10.07;;;;;;;16.96;77.04;99938.16;687365;28;1265;-76
2023/08/06 01:07:21;;;;;;;12.35;10.50;;;;;;;16.98;76.94;99935.50;682522;29;2006;-76
2023/08/06 01:07:50;;;;;;;12.43;10.50;;;;;;;16.93;77.05;99922.38;690812;28;1212;-76
2023/08/06 01:08:32;;;;;;;12.27;10.07;;;;;;;16.97;76.89;99933.75;685105;28;1175;-76
2023/08/06 01:08:58;;;;;;;12.38;9.68;;;;;;;16.90;77.09;99926.81;685498;28;1190;-76
2023/08/06 01:09:57;;;;;;;12.63;9.45;;;;;;;16.96;77.04;99938.16;686621;28;1988;-76
2023/08/06 01:10:46;;;;;;;12.60;10.25;;;;;;;16.96;77.10;99930.25;684809;28;1872;-76
2023/08/06 01:11:32;;;;;;;13.00;10.75;;;;;;;16.90;77.20;99919.78;686359;28;1020;-76
2023/08/06 01:12:10;;;;;;;14.83;10.07;;;;;;;16.97;77.14;99929.34;683995;29;1039;-76
2023/08/06 01:12:48;;;;;;;15.63;9.90;;;;;;;16.93;77.23;99917.13;689741;28;1055;-76
2023/08/06 01:13:14;;;;;;;16.60;10.88;;;;;;;16.99;77.14;99926.69;691233;28;985;-75
2023/08/06 01:13:49;;;;;;;18.10;11.77;;;;;;;17.19;76.77;99921.19;689245;28;1991;-76
2023/08/06 01:14:20;;;;;;;15.55;11.40;;;;;;;17.33;76.09;99928.06;683564;28;1785;-76
2023/08/06 01:15:27;;;;;;;12.05;10.77;;;;;;;17.45;75.28;99929.66;688699;28;1052;-76
2023/08/06 01:15:57;;;;;;;15.68;11.27;;;;;;;17.43;74.96;99916.50;682161;29;1200;-77
2023/08/06 01:16:20;;;;;;;13.65;10.77;;;;;;;17.38;75.01;99905.13;682863;28;1263;-75
2023/08/06 01:16:42;;;;;;;12.93;10.30;;;;;;;17.38;75.13;99908.66;681602;29;1713;-76
2023/08/06 01:17:04;;;;;;;14.13;10.50;;;;;;;17.42;74.99;99913.88;682644;28;1256;-76
2023/08/06 01:17:26;;;;;;;16.63;10.05;;;;;;;17.44;75.02;99915.59;683003;29;1171;-76
2023/08/06 01:17:48;;;;;;;17.67;10.40;;;;;;;17.43;75.04;99913.84;680055;29;1699;-76
2023/08/06 01:18:09;;;;;;;17.27;10.70;;;;;;;17.47;74.84;99918.22;685923;28;1056;-75
2023/08/06 01:18:29;;;;;;;13.90;11.20;;;;;;;17.42;74.85;99903.31;686177;28;1329;-76
2023/08/06 01:18:50;;;;;;;13.23;10.55;;;;;;;17.42;74.85;99911.22;678144;29;1986;-76
2023/08/06 01:19:18;;;;;;;12.93;10.30;;;;;;;17.40;74.85;99909.50;682370;28;1108;-76
2023/08/06 01:19:39;;;;;;;15.15;10.43;;;;;;;17.37;74.96;99906.03;685455;28;1059;-75
2023/08/06 01:20:00;;;;;;;15.47;10.90;;;;;;;17.35;74.85;99907.81;685522;28;1731;-76
2023/08/06 01:20:20;;;;;;;14.35;10.88;;;;;;;17.38;75.02;99907.75;688135;28;1163;-77
2023/08/06 01:20:42;;;;;;;14.35;11.45;;;;;;;17.33;74.88;99893.78;682674;28;1121;-76
2023/08/06 01:21:02;;;;;;;16.90;11.30;;;;;;;17.37;74.80;99903.38;680286;29;1897;-76
2023/08/06 01:21:23;;;;;;;18.80;11.50;;;;;;;17.33;74.89;99899.06;680087;29;1105;-76
2023/08/06 01:21:44;;;;;;;18.45;11.52;;;;;;;17.34;74.86;99896.38;683896;28;1074;-76
2023/08/06 01:22:05;;;;;;;16.02;11.95;;;;;;;17.31;74.76;99904.34;687113;28;1807;-76
2023/08/06 01:22:27;;;;;;;13.57;11.40;;;;;;;17.33;74.81;99896.44;685712;28;1228;-77
2023/08/06 01:22:47;;;;;;;13.07;11.32;;;;;;;17.28;74.81;99885.94;680153;28;1171;-76
2023/08/06 01:23:08;;;;;;;13.73;11.20;;;;;;;17.33;74.81;99893.78;688199;28;1329;-77
2023/08/06 01:23:29;;;;;;;14.70;11.43;;;;;;;17.25;74.76;99892.13;690494;28;1968;-76
2023/08/06 01:23:50;;;;;;;16.45;12.07;;;;;;;17.30;74.91;99891.19;690709;28;1299;-77
2023/08/06 01:24:11;;;;;;;16.65;12.30;;;;;;;17.34;74.99;99904.28;690587;28;1821;-76
2023/08/06 01:24:32;;;;;;;16.23;11.88;;;;;;;17.11;75.09;99904.59;690338;28;1275;-76
2023/08/06 01:24:54;;;;;;;14.25;10.93;;;;;;;17.02;75.56;99902.94;685191;28;1028;-76
2023/08/06 01:25:16;;;;;;;13.90;10.63;;;;;;;17.14;75.22;99901.91;679763;29;1656;-76
2023/08/06 01:25:54;;;;;;;13.30;10.23;;;;;;;17.08;75.58;99894.09;687332;28;1737;-76
2023/08/06 01:26:35;;;;;;;12.45;10.25;;;;;;;17.11;75.43;99904.59;687465;28;1806;-76
2023/08/06 01:27:10;;;;;;;13.13;10.50;;;;;;;16.92;76.21;99906.59;688401;28;886;-76
2023/08/06 01:27:46;;;;;;;13.50;10.75;;;;;;;16.95;76.30;99901.25;686769;28;1785;-76
2023/08/06 01:28:27;;;;;;;16.70;11.70;;;;;;;16.85;76.30;99903.16;687179;28;1532;-76
2023/08/06 01:29:14;;;;;;;15.80;11.32;;;;;;;16.78;76.57;99893.59;683251;28;1004;-76
2023/08/06 01:29:43;;;;;;;19.70;10.38;;;;;;;16.79;76.83;99897.97;688392;28;1364;-76
2023/08/06 01:30:12;;;;;;;19.38;10.65;;;;;;;16.78;76.79;99899.72;688305;28;1070;-77
2023/08/06 01:30:38;;;;;;;12.35;10.43;;;;;;;16.92;77.10;99894.28;687330;28;1140;-77
2023/08/06 01:31:03;;;;;;;13.65;9.80;;;;;;;16.98;76.40;99894.19;686881;28;1113;-76
2023/08/06 01:31:31;;;;;;;14.70;9.50;;;;;;;17.09;76.01;99896.69;689852;28;1514;-76
2023/08/06 01:31:53;;;;;;;14.23;9.77;;;;;;;17.14;75.85;99894.00;684188;28;2038;-77
2023/08/06 01:32:16;;;;;;;14.13;9.80;;;;;;;17.14;75.65;99886.09;689845;28;975;-76
2023/08/06 01:32:42;;;;;;;13.30;9.90;;;;;;;17.25;75.31;99902.69;685077;28;1087;-76
2023/08/06 01:33:05;;;;;;;12.40;9.98;;;;;;;17.23;75.19;99883.34;683567;28;2141;-76
2023/08/06 01:33:28;;;;;;;14.30;10.63;;;;;;;17.23;75.25;99883.34;682628;28;1306;-76
2023/08/06 01:33:51;;;;;;;14.15;10.50;;;;;;;17.29;75.15;99892.06;679927;29;1126;-76
2023/08/06 01:34:18;;;;;;;15.38;10.52;;;;;;;17.33;75.09;99893.78;680211;29;1124;-76
2023/08/06 01:34:41;;;;;;;13.50;10.40;;;;;;;17.31;74.86;99885.91;682494;29;1116;-76
2023/08/06 01:35:03;;;;;;;13.98;10.90;;;;;;;17.29;74.79;99892.06;681679;29;1787;-75
2023/08/06 01:35:26;;;;;;;15.70;12.05;;;;;;;17.34;74.91;99895.53;688811;28;1259;-76
2023/08/06 01:35:49;;;;;;;17.33;13.02;;;;;;;17.35;74.87;99892.00;685117;28;1052;-76
2023/08/06 01:36:11;;;;;;;20.83;14.50;;;;;;;17.35;74.78;99897.28;683506;28;1657;-76
2023/08/06 01:36:32;;;;;;;22.17;14.45;;;;;;;17.38;74.65;99892.81;685196;28;1147;-75
2023/08/06 01:36:54;;;;;;;23.08;15.55;;;;;;;17.36;74.67;99899.00;688025;28;1271;-76
2023/08/06 01:37:15;;;;;;;27.83;17.92;;;;;;;17.36;74.81;99888.47;685354;28;1994;-77
2023/08/06 01:37:37;;;;;;;31.17;20.90;;;;;;;17.38;74.86;99891.94;685009;28;1460;-76
2023/08/06 01:37:59;;;;;;;35.30;23.63;;;;;;;17.39;74.74;99898.94;685641;28;1477;-76
2023/08/06 01:38:20;;;;;;;34.60;24.60;;;;;;;17.26;74.89;99883.31;683939;28;2177;-76
2023/08/06 01:38:41;;;;;;;33.65;25.60;;;;;;;17.08;75.22;99888.81;685328;28;1379;-76
2023/08/06 01:39:04;;;;;;;34.80;25.80;;;;;;;17.08;75.63;99902.00;685424;28;1532;-76
2023/08/06 01:39:25;;;;;;;37.67;27.50;;;;;;;16.97;75.99;99889.81;686812;28;1557;-76
2023/08/06 01:39:45;;;;;;;38.78;28.15;;;;;;;16.94;75.80;99888.97;690044;28;1275;-76
2023/08/06 01:40:10;;;;;;;38.77;29.20;;;;;;;16.92;76.18;99881.13;689466;28;1125;-76
2023/08/06 01:40:32;;;;;;;41.13;29.58;;;;;;;16.91;76.40;99887.25;682102;28;1619;-76
2023/08/06 01:40:53;;;;;;;44.60;29.40;;;;;;;16.86;76.42;99883.81;685330;28;1155;-76
2023/08/06 01:41:13;;;;;;;42.90;27.65;;;;;;;16.88;76.19;99887.31;686458;28;1081;-76
2023/08/06 01:41:34;;;;;;;38.73;25.57;;;;;;;16.87;76.65;99888.19;687166;28;1672;-76
2023/08/06 01:41:54;;;;;;;34.70;23.57;;;;;;;16.84;76.67;99882.97;682724;28;950;-76
2023/08/06 01:42:15;;;;;;;32.03;22.25;;;;;;;16.84;76.77;99885.63;685397;28;1092;-76
2023/08/06 01:42:35;;;;;;;30.17;21.93;;;;;;;16.87;76.62;99885.56;679149;29;1263;-76
2023/08/06 01:42:56;;;;;;;26.75;21.35;;;;;;;16.84;76.64;99885.63;690016;28;1133;-76
2023/08/06 01:43:16;;;;;;;26.50;21.40;;;;;;;16.81;76.81;99880.34;689115;28;2185;-76
2023/08/06 01:43:37;;;;;;;27.48;20.75;;;;;;;16.82;76.89;99884.72;686800;28;1914;-76
2023/08/06 01:43:58;;;;;;;28.42;21.33;;;;;;;16.81;76.90;99886.50;685494;28;776;-76
2023/08/06 01:44:19;;;;;;;26.65;21.30;;;;;;;16.88;77.07;99892.56;685265;28;1264;-76
2023/08/06 01:44:39;;;;;;;26.27;21.47;;;;;;;16.84;76.94;99885.63;692287;28;1640;-76
2023/08/06 01:45:00;;;;;;;25.15;20.35;;;;;;;16.78;76.96;99877.78;690412;28;1100;-76
2023/08/06 01:45:21;;;;;;;26.27;19.30;;;;;;;16.81;76.86;99885.63;683712;28;1210;-76
2023/08/06 01:45:43;;;;;;;27.95;18.55;;;;;;;16.83;76.88;99887.34;684594;28;986;-76
2023/08/06 01:46:04;;;;;;;28.90;19.00;;;;;;;16.80;76.90;99878.63;687161;28;1179;-76
2023/08/06 01:46:24;;;;;;;31.10;19.20;;;;;;;16.82;76.88;99884.72;687874;28;1166;-75
2023/08/06 01:46:45;;;;;;;29.02;19.77;;;;;;;16.80;76.96;99883.88;685337;28;1074;-76
2023/08/06 01:47:06;;;;;;;28.88;19.80;;;;;;;16.85;76.74;99890.00;685156;28;1803;-76
2023/08/06 01:47:27;;;;;;;27.40;20.75;;;;;;;16.80;77.04;99879.50;685465;28;1404;-76
2023/08/06 01:47:47;;;;;;;27.00;21.02;;;;;;;16.84;77.03;99885.63;682455;29;1202;-76